sensor_id;sensor_type;location;lat;lon;timestamp;pressure;altitude;pressure_sealevel;temperature;humidity
37878;BME280;23715;53.652;8.516;2023-07-20T00:01:11;101432.94;;;17.52;100.00
37878;BME280;23715;53.652;8.516;2023-07-20T00:06:12;101429.55;;;17.54;100.00
37878;BME280;23715;53.652;8.516;2023-07-20T00:11:12;101421.22;;;17.51;100.00
37878;BME280;23715;53.652;8.516;2023-07-20T00:16:12;101401.51;;;17.53;100.00
37878;BME280;23715;53.652;8.516;2023-07-20T00:21:13;101383.54;;;17.69;100.00
37878;BME280;23715;53.652;8.516;2023-07-20T00:26:12;101378.80;;;17.79;100.00
37878;BME280;23715;53.652;8.516;2023-07-20T00:31:12;101369.25;;;17.63;100.00
37878;BME280;23715;53.652;8.516;2023-07-20T00:36:14;101360.47;;;17.30;100.00
37878;BME280;23715;53.652;8.516;2023-07-20T00:41:17;101357.09;;;17.41;100.00
37878;BME280;23715;53.652;8.516;2023-07-20T00:46:16;101348.28;;;17.51;100.00
37878;BME280;23715;53.652;8.516;2023-07-20T00:51:17;101353.55;;;17.44;100.00
37878;BME280;23715;53.652;8.516;2023-07-20T00:56:18;101344.92;;;17.57;100.00
37878;BME280;23715;53.652;8.516;2023-07-20T01:01:18;101349.33;;;17.58;100.00
37878;BME280;23715;53.652;8.516;2023-07-20T01:06:24;101348.65;;;17.56;100.00
37878;BME280;23715;53.652;8.516;2023-07-20T01:11:34;101350.00;;;17.56;100.00
37878;BME280;23715;53.652;8.516;2023-07-20T01:16:33;101342.05;;;17.59;100.00
37878;BME280;23715;53.652;8.516;2023-07-20T01:21:40;101357.75;;;17.30;100.00
37878;BME280;23715;53.652;8.516;2023-07-20T01:32:02;101356.31;;;17.14;100.00
37878;BME280;23715;53.652;8.516;2023-07-20T01:37:06;101346.41;;;17.05;100.00
37878;BME280;23715;53.652;8.516;2023-07-20T01:42:07;101348.41;;;16.94;100.00
37878;BME280;23715;53.652;8.516;2023-07-20T01:47:06;101352.61;;;17.19;100.00
37878;BME280;23715;53.652;8.516;2023-07-20T01:52:08;101339.24;;;17.00;100.00
37878;BME280;23715;53.652;8.516;2023-07-20T01:57:08;101336.34;;;16.93;100.00
37878;BME280;23715;53.652;8.516;2023-07-20T02:02:08;101345.66;;;16.68;100.00
37878;BME280;23715;53.652;8.516;2023-07-20T02:07:09;101346.41;;;17.05;100.00
37878;BME280;23715;53.652;8.516;2023-07-20T02:12:09;101338.50;;;17.20;100.00
37878;BME280;23715;53.652;8.516;2023-07-20T02:17:09;101337.00;;;17.29;100.00
37878;BME280;23715;53.652;8.516;2023-07-20T02:22:10;101338.40;;;16.99;100.00
37878;BME280;23715;53.652;8.516;2023-07-20T02:27:10;101345.27;;;17.11;100.00
37878;BME280;23715;53.652;8.516;2023-07-20T02:32:10;101335.27;;;16.86;100.00
37878;BME280;23715;53.652;8.516;2023-07-20T02:37:10;101326.00;;;16.96;100.00
37878;BME280;23715;53.652;8.516;2023-07-20T02:42:12;101339.52;;;16.62;100.00
37878;BME280;23715;53.652;8.516;2023-07-20T02:47:14;101339.06;;;16.75;100.00
37878;BME280;23715;53.652;8.516;2023-07-20T02:52:14;101338.33;;;17.17;100.00
37878;BME280;23715;53.652;8.516;2023-07-20T02:57:17;101336.32;;;17.27;100.00
37878;BME280;23715;53.652;8.516;2023-07-20T03:02:18;101335.27;;;17.20;100.00
37878;BME280;23715;53.652;8.516;2023-07-20T03:07:18;101330.80;;;17.11;100.00
37878;BME280;23715;53.652;8.516;2023-07-20T03:12:18;101349.23;;;16.91;100.00
37878;BME280;23715;53.652;8.516;2023-07-20T03:17:19;101345.00;;;16.92;100.00
37878;BME280;23715;53.652;8.516;2023-07-20T03:22:19;101347.56;;;17.32;100.00
37878;BME280;23715;53.652;8.516;2023-07-20T03:27:21;101359.45;;;17.35;100.00
37878;BME280;23715;53.652;8.516;2023-07-20T03:32:22;101375.09;;;17.03;100.00
37878;BME280;23715;53.652;8.516;2023-07-20T03:37:23;101371.51;;;16.76;100.00
37878;BME280;23715;53.652;8.516;2023-07-20T03:42:23;101369.97;;;16.74;100.00
37878;BME280;23715;53.652;8.516;2023-07-20T03:47:25;101372.17;;;16.92;100.00
37878;BME280;23715;53.652;8.516;2023-07-20T03:52:25;101374.33;;;16.67;100.00
37878;BME280;23715;53.652;8.516;2023-07-20T03:57:25;101371.42;;;16.60;100.00
37878;BME280;23715;53.652;8.516;2023-07-20T04:02:25;101369.56;;;16.65;100.00
37878;BME280;23715;53.652;8.516;2023-07-20T04:07:26;101362.45;;;16.90;100.00
37878;BME280;23715;53.652;8.516;2023-07-20T04:12:25;101375.34;;;16.88;100.00
37878;BME280;23715;53.652;8.516;2023-07-20T04:17:25;101373.69;;;16.91;100.00
37878;BME280;23715;53.652;8.516;2023-07-20T04:22:26;101374.47;;;17.09;100.00
37878;BME280;23715;53.652;8.516;2023-07-20T04:27:26;101369.55;;;16.61;100.00
37878;BME280;23715;53.652;8.516;2023-07-20T04:32:33;101377.38;;;16.86;100.00
37878;BME280;23715;53.652;8.516;2023-07-20T04:37:34;101376.94;;;16.76;100.00
37878;BME280;23715;53.652;8.516;2023-07-20T04:42:35;101377.67;;;17.09;100.00
37878;BME280;23715;53.652;8.516;2023-07-20T04:47:35;101374.41;;;17.01;100.00
37878;BME280;23715;53.652;8.516;2023-07-20T04:52:36;101380.19;;;17.32;100.00
37878;BME280;23715;53.652;8.516;2023-07-20T04:57:36;101397.29;;;16.72;100.00
37878;BME280;23715;53.652;8.516;2023-07-20T05:02:37;101390.93;;;16.64;100.00
37878;BME280;23715;53.652;8.516;2023-07-20T05:07:37;101392.34;;;16.68;100.00
37878;BME280;23715;53.652;8.516;2023-07-20T05:12:39;101386.52;;;17.11;100.00
37878;BME280;23715;53.652;8.516;2023-07-20T05:17:40;101386.60;;;16.75;100.00
37878;BME280;23715;53.652;8.516;2023-07-20T05:22:41;101382.34;;;16.90;100.00
37878;BME280;23715;53.652;8.516;2023-07-20T05:27:41;101391.65;;;16.88;100.00
37878;BME280;23715;53.652;8.516;2023-07-20T05:32:41;101386.72;;;17.13;100.00
37878;BME280;23715;53.652;8.516;2023-07-20T05:37:41;101376.80;;;17.00;100.00
37878;BME280;23715;53.652;8.516;2023-07-20T05:42:47;101394.72;;;16.89;100.00
37878;BME280;23715;53.652;8.516;2023-07-20T05:47:43;101385.50;;;17.08;100.00
37878;BME280;23715;53.652;8.516;2023-07-20T05:52:44;101384.03;;;17.22;100.00
37878;BME280;23715;53.652;8.516;2023-07-20T05:57:44;101389.84;;;17.27;100.00
37878;BME280;23715;53.652;8.516;2023-07-20T06:02:44;101391.55;;;17.32;100.00
37878;BME280;23715;53.652;8.516;2023-07-20T06:07:46;101392.03;;;17.23;100.00
37878;BME280;23715;53.652;8.516;2023-07-20T06:12:47;101407.13;;;17.22;100.00
37878;BME280;23715;53.652;8.516;2023-07-20T06:17:47;101399.77;;;17.44;100.00
37878;BME280;23715;53.652;8.516;2023-07-20T06:22:49;101408.23;;;17.07;100.00
37878;BME280;23715;53.652;8.516;2023-07-20T06:27:50;101409.93;;;17.34;100.00
37878;BME280;23715;53.652;8.516;2023-07-20T06:32:53;101417.98;;;17.17;100.00
37878;BME280;23715;53.652;8.516;2023-07-20T06:37:53;101422.06;;;16.91;100.00
37878;BME280;23715;53.652;8.516;2023-07-20T06:42:54;101421.57;;;17.22;100.00
37878;BME280;23715;53.652;8.516;2023-07-20T06:47:55;101418.27;;;17.41;100.00
37878;BME280;23715;53.652;8.516;2023-07-20T06:52:56;101432.76;;;16.89;100.00
37878;BME280;23715;53.652;8.516;2023-07-20T06:57:57;101428.62;;;17.07;100.00
37878;BME280;23715;53.652;8.516;2023-07-20T07:02:58;101425.44;;;17.46;100.00
37878;BME280;23715;53.652;8.516;2023-07-20T07:07:57;101417.43;;;17.40;100.00
37878;BME280;23715;53.652;8.516;2023-07-20T07:12:57;101413.52;;;17.43;100.00
37878;BME280;23715;53.652;8.516;2023-07-20T07:17:58;101410.81;;;17.47;100.00
37878;BME280;23715;53.652;8.516;2023-07-20T07:22:58;101414.73;;;17.48;100.00
37878;BME280;23715;53.652;8.516;2023-07-20T07:27:59;101420.72;;;17.56;100.00
37878;BME280;23715;53.652;8.516;2023-07-20T07:32:59;101423.94;;;17.51;100.00
37878;BME280;23715;53.652;8.516;2023-07-20T07:38:00;101432.67;;;17.71;100.00
37878;BME280;23715;53.652;8.516;2023-07-20T07:43:00;101426.36;;;17.59;100.00
37878;BME280;23715;53.652;8.516;2023-07-20T07:48:02;101426.70;;;18.14;100.00
37878;BME280;23715;53.652;8.516;2023-07-20T07:53:03;101420.25;;;18.24;100.00
37878;BME280;23715;53.652;8.516;2023-07-20T07:58:03;101430.11;;;18.12;100.00
37878;BME280;23715;53.652;8.516;2023-07-20T08:03:03;101433.67;;;18.13;100.00
37878;BME280;23715;53.652;8.516;2023-07-20T08:08:04;101433.01;;;17.64;100.00
37878;BME280;23715;53.652;8.516;2023-07-20T08:13:04;101448.25;;;17.87;100.00
37878;BME280;23715;53.652;8.516;2023-07-20T08:18:04;101451.88;;;18.08;100.00
37878;BME280;23715;53.652;8.516;2023-07-20T08:23:04;101446.64;;;18.23;100.00
37878;BME280;23715;53.652;8.516;2023-07-20T08:28:03;101447.84;;;18.45;100.00
37878;BME280;23715;53.652;8.516;2023-07-20T08:33:05;101450.06;;;18.50;100.00
37878;BME280;23715;53.652;8.516;2023-07-20T08:38:05;101467.72;;;17.74;100.00
37878;BME280;23715;53.652;8.516;2023-07-20T08:43:06;101476.56;;;17.76;100.00
37878;BME280;23715;53.652;8.516;2023-07-20T08:48:09;101483.66;;;18.08;100.00
37878;BME280;23715;53.652;8.516;2023-07-20T08:53:10;101473.64;;;18.04;100.00
37878;BME280;23715;53.652;8.516;2023-07-20T08:58:13;101497.03;;;17.89;100.00
37878;BME280;23715;53.652;8.516;2023-07-20T09:03:15;101509.06;;;17.82;100.00
37878;BME280;23715;53.652;8.516;2023-07-20T09:08:18;101498.46;;;18.05;100.00
37878;BME280;23715;53.652;8.516;2023-07-20T09:13:20;101479.16;;;18.45;100.00
37878;BME280;23715;53.652;8.516;2023-07-20T09:18:23;101479.52;;;18.42;100.00
37878;BME280;23715;53.652;8.516;2023-07-20T09:23:40;101502.54;;;18.01;100.00
37878;BME280;23715;53.652;8.516;2023-07-20T09:28:51;101496.19;;;18.76;100.00
37878;BME280;23715;53.652;8.516;2023-07-20T09:33:54;101486.20;;;18.97;100.00
37878;BME280;23715;53.652;8.516;2023-07-20T09:38:55;101493.09;;;18.34;100.00
37878;BME280;23715;53.652;8.516;2023-07-20T09:43:55;101502.00;;;18.69;100.00
37878;BME280;23715;53.652;8.516;2023-07-20T09:48:55;101513.44;;;19.09;100.00
37878;BME280;23715;53.652;8.516;2023-07-20T09:53:57;101510.19;;;19.22;100.00
37878;BME280;23715;53.652;8.516;2023-07-20T09:58:57;101510.67;;;18.52;100.00
37878;BME280;23715;53.652;8.516;2023-07-20T10:04:02;101519.77;;;18.10;100.00
37878;BME280;23715;53.652;8.516;2023-07-20T10:09:04;101520.04;;;18.53;100.00
37878;BME280;23715;53.652;8.516;2023-07-20T10:14:06;101522.46;;;18.81;100.00
37878;BME280;23715;53.652;8.516;2023-07-20T10:19:17;101512.92;;;19.06;100.00
37878;BME280;23715;53.652;8.516;2023-07-20T10:24:18;101512.52;;;18.43;100.00
37878;BME280;23715;53.652;8.516;2023-07-20T10:29:19;101512.71;;;18.50;100.00
37878;BME280;23715;53.652;8.516;2023-07-20T10:34:20;101518.94;;;18.22;100.00
37878;BME280;23715;53.652;8.516;2023-07-20T10:39:26;101521.89;;;18.57;100.00
37878;BME280;23715;53.652;8.516;2023-07-20T10:44:26;101518.95;;;18.34;100.00
37878;BME280;23715;53.652;8.516;2023-07-20T10:49:27;101523.96;;;18.71;100.00
37878;BME280;23715;53.652;8.516;2023-07-20T11:04:46;101526.17;;;18.68;100.00
37878;BME280;23715;53.652;8.516;2023-07-20T11:09:42;101529.30;;;18.89;100.00
37878;BME280;23715;53.652;8.516;2023-07-20T11:14:55;101520.72;;;18.60;100.00
37878;BME280;23715;53.652;8.516;2023-07-20T11:19:47;101522.89;;;18.44;100.00
37878;BME280;23715;53.652;8.516;2023-07-20T11:24:48;101539.00;;;18.88;100.00
37878;BME280;23715;53.652;8.516;2023-07-20T11:29:51;101539.00;;;18.88;100.00
37878;BME280;23715;53.652;8.516;2023-07-20T11:34:52;101532.66;;;18.71;100.00
37878;BME280;23715;53.652;8.516;2023-07-20T11:39:55;101540.47;;;18.53;100.00
37878;BME280;23715;53.652;8.516;2023-07-20T11:44:56;101530.15;;;18.86;100.00
37878;BME280;23715;53.652;8.516;2023-07-20T11:50:03;101529.28;;;19.02;100.00
37878;BME280;23715;53.652;8.516;2023-07-20T11:55:01;101529.28;;;19.18;100.00
37878;BME280;23715;53.652;8.516;2023-07-20T12:00:04;101535.70;;;18.76;100.00
37878;BME280;23715;53.652;8.516;2023-07-20T12:05:06;101539.50;;;18.83;100.00
37878;BME280;23715;53.652;8.516;2023-07-20T12:10:10;101531.52;;;18.86;100.00
37878;BME280;23715;53.652;8.516;2023-07-20T12:15:27;101534.73;;;19.02;100.00
37878;BME280;23715;53.652;8.516;2023-07-20T12:20:38;101520.75;;;19.01;100.00
37878;BME280;23715;53.652;8.516;2023-07-20T12:25:43;101529.41;;;19.45;100.00
37878;BME280;23715;53.652;8.516;2023-07-20T12:30:46;101514.22;;;19.51;100.00
37878;BME280;23715;53.652;8.516;2023-07-20T12:35:48;101514.38;;;19.49;100.00
37878;BME280;23715;53.652;8.516;2023-07-20T12:40:49;101522.80;;;18.99;100.00
37878;BME280;23715;53.652;8.516;2023-07-20T12:45:51;101533.03;;;18.84;100.00
37878;BME280;23715;53.652;8.516;2023-07-20T12:50:51;101536.77;;;18.87;100.00
37878;BME280;23715;53.652;8.516;2023-07-20T12:55:51;101530.31;;;18.88;100.00
37878;BME280;23715;53.652;8.516;2023-07-20T13:00:51;101520.14;;;19.63;100.00
37878;BME280;23715;53.652;8.516;2023-07-20T13:05:51;101523.66;;;18.91;100.00
37878;BME280;23715;53.652;8.516;2023-07-20T13:10:51;101520.73;;;19.25;100.00
37878;BME280;23715;53.652;8.516;2023-07-20T13:15:52;101521.77;;;19.28;100.00
37878;BME280;23715;53.652;8.516;2023-07-20T13:20:53;101520.02;;;19.56;100.00
37878;BME280;23715;53.652;8.516;2023-07-20T13:25:53;101528.95;;;18.88;100.00
37878;BME280;23715;53.652;8.516;2023-07-20T13:30:53;101537.64;;;18.88;100.00
37878;BME280;23715;53.652;8.516;2023-07-20T13:35:55;101527.23;;;19.20;100.00
37878;BME280;23715;53.652;8.516;2023-07-20T13:40:55;101541.01;;;19.31;100.00
37878;BME280;23715;53.652;8.516;2023-07-20T13:45:55;101527.73;;;19.16;100.00
37878;BME280;23715;53.652;8.516;2023-07-20T13:50:55;101522.97;;;19.26;100.00
37878;BME280;23715;53.652;8.516;2023-07-20T13:55:55;101514.95;;;19.24;100.00
37878;BME280;23715;53.652;8.516;2023-07-20T14:00:56;101528.94;;;18.92;100.00
37878;BME280;23715;53.652;8.516;2023-07-20T14:05:56;101524.51;;;19.04;100.00
37878;BME280;23715;53.652;8.516;2023-07-20T14:10:56;101516.41;;;19.56;100.00
37878;BME280;23715;53.652;8.516;2023-07-20T14:15:57;101512.59;;;19.09;100.00
37878;BME280;23715;53.652;8.516;2023-07-20T14:21:02;101512.31;;;19.64;100.00
37878;BME280;23715;53.652;8.516;2023-07-20T14:26:04;101500.09;;;19.95;100.00
37878;BME280;23715;53.652;8.516;2023-07-20T14:31:04;101511.83;;;19.48;100.00
37878;BME280;23715;53.652;8.516;2023-07-20T14:36:04;101513.91;;;19.38;100.00
37878;BME280;23715;53.652;8.516;2023-07-20T14:41:06;101508.66;;;19.92;100.00
37878;BME280;23715;53.652;8.516;2023-07-20T14:46:06;101498.58;;;20.24;100.00
37878;BME280;23715;53.652;8.516;2023-07-20T14:51:07;101517.50;;;19.18;100.00
37878;BME280;23715;53.652;8.516;2023-07-20T14:56:09;101518.53;;;19.21;100.00
37878;BME280;23715;53.652;8.516;2023-07-20T15:01:12;101521.08;;;19.14;100.00
37878;BME280;23715;53.652;8.516;2023-07-20T15:06:18;101511.00;;;19.43;100.00
37878;BME280;23715;53.652;8.516;2023-07-20T15:11:15;101491.63;;;20.17;100.00
37878;BME280;23715;53.652;8.516;2023-07-20T15:16:17;101483.36;;;20.80;100.00
37878;BME280;23715;53.652;8.516;2023-07-20T15:21:17;101472.34;;;20.19;100.00
37878;BME280;23715;53.652;8.516;2023-07-20T15:26:17;101464.69;;;20.41;100.00
37878;BME280;23715;53.652;8.516;2023-07-20T15:31:19;101471.52;;;19.70;100.00
37878;BME280;23715;53.652;8.516;2023-07-20T15:36:21;101470.22;;;20.29;100.00
37878;BME280;23715;53.652;8.516;2023-07-20T15:41:20;101475.69;;;20.79;100.00
37878;BME280;23715;53.652;8.516;2023-07-20T15:51:29;101479.10;;;20.00;100.00
37878;BME280;23715;53.652;8.516;2023-07-20T15:56:31;101476.94;;;19.87;100.00
37878;BME280;23715;53.652;8.516;2023-07-20T16:01:31;101471.83;;;19.84;100.00
37878;BME280;23715;53.652;8.516;2023-07-20T16:06:32;101464.34;;;20.40;100.00
37878;BME280;23715;53.652;8.516;2023-07-20T16:11:35;101465.24;;;20.33;100.00
37878;BME280;23715;53.652;8.516;2023-07-20T16:16:37;101466.50;;;19.95;100.00
37878;BME280;23715;53.652;8.516;2023-07-20T16:21:37;101456.80;;;20.42;100.00
37878;BME280;23715;53.652;8.516;2023-07-20T16:26:38;101445.85;;;20.89;100.00
37878;BME280;23715;53.652;8.516;2023-07-20T16:31:40;101445.76;;;20.82;100.00
37878;BME280;23715;53.652;8.516;2023-07-20T16:36:40;101450.39;;;20.81;100.00
37878;BME280;23715;53.652;8.516;2023-07-20T16:41:44;101450.89;;;20.35;100.00
37878;BME280;23715;53.652;8.516;2023-07-20T16:46:42;101455.02;;;19.99;100.00
37878;BME280;23715;53.652;8.516;2023-07-20T16:51:44;101452.39;;;20.37;100.00
37878;BME280;23715;53.652;8.516;2023-07-20T16:56:45;101446.23;;;20.66;100.00
37878;BME280;23715;53.652;8.516;2023-07-20T17:01:45;101457.67;;;20.16;100.00
37878;BME280;23715;53.652;8.516;2023-07-20T17:06:47;101450.70;;;20.13;100.00
37878;BME280;23715;53.652;8.516;2023-07-20T17:11:47;101453.97;;;19.65;100.00
37878;BME280;23715;53.652;8.516;2023-07-20T17:16:49;101446.94;;;19.27;100.00
37878;BME280;23715;53.652;8.516;2023-07-20T17:21:50;101428.12;;;20.19;100.00
37878;BME280;23715;53.652;8.516;2023-07-20T17:26:50;101425.00;;;20.03;100.00
37878;BME280;23715;53.652;8.516;2023-07-20T17:31:51;101415.27;;;20.28;100.00
37878;BME280;23715;53.652;8.516;2023-07-20T17:36:51;101418.63;;;20.11;100.00
37878;BME280;23715;53.652;8.516;2023-07-20T17:41:51;101413.88;;;20.32;100.00
37878;BME280;23715;53.652;8.516;2023-07-20T17:46:51;101416.55;;;19.90;100.00
37878;BME280;23715;53.652;8.516;2023-07-20T17:51:51;101418.88;;;20.20;100.00
37878;BME280;23715;53.652;8.516;2023-07-20T17:56:51;101409.92;;;19.80;100.00
37878;BME280;23715;53.652;8.516;2023-07-20T18:01:51;101409.52;;;19.92;100.00
37878;BME280;23715;53.652;8.516;2023-07-20T18:06:51;101401.11;;;20.47;100.00
37878;BME280;23715;53.652;8.516;2023-07-20T18:11:51;101404.90;;;20.42;100.00
37878;BME280;23715;53.652;8.516;2023-07-20T18:16:51;101402.63;;;20.27;100.00
37878;BME280;23715;53.652;8.516;2023-07-20T18:21:51;101406.10;;;20.21;100.00
37878;BME280;23715;53.652;8.516;2023-07-20T18:26:51;101399.45;;;20.19;100.00
37878;BME280;23715;53.652;8.516;2023-07-20T18:31:56;101399.79;;;20.39;100.00
37878;BME280;23715;53.652;8.516;2023-07-20T18:36:53;101398.59;;;20.65;100.00
37878;BME280;23715;53.652;8.516;2023-07-20T18:41:54;101391.36;;;21.06;100.00
37878;BME280;23715;53.652;8.516;2023-07-20T18:46:57;101388.05;;;21.40;100.00
37878;BME280;23715;53.652;8.516;2023-07-20T18:51:57;101395.30;;;20.46;100.00
37878;BME280;23715;53.652;8.516;2023-07-20T18:56:58;101406.42;;;20.22;100.00
37878;BME280;23715;53.652;8.516;2023-07-20T19:01:58;101406.32;;;19.84;100.00
37878;BME280;23715;53.652;8.516;2023-07-20T19:06:58;101405.73;;;19.65;100.00
37878;BME280;23715;53.652;8.516;2023-07-20T19:11:58;101400.98;;;19.55;100.00
37878;BME280;23715;53.652;8.516;2023-07-20T19:16:58;101415.42;;;19.24;100.00
37878;BME280;23715;53.652;8.516;2023-07-20T19:21:58;101414.97;;;19.08;100.00
37878;BME280;23715;53.652;8.516;2023-07-20T19:26:59;101420.27;;;18.85;100.00
37878;BME280;23715;53.652;8.516;2023-07-20T19:32:01;101430.13;;;18.74;100.00
37878;BME280;23715;53.652;8.516;2023-07-20T19:37:01;101428.45;;;18.81;100.00
37878;BME280;23715;53.652;8.516;2023-07-20T19:42:02;101434.92;;;18.56;100.00
37878;BME280;23715;53.652;8.516;2023-07-20T19:47:02;101437.13;;;18.48;100.00
37878;BME280;23715;53.652;8.516;2023-07-20T19:52:02;101433.02;;;18.31;100.00
37878;BME280;23715;53.652;8.516;2023-07-20T19:57:03;101442.36;;;18.21;100.00
37878;BME280;23715;53.652;8.516;2023-07-20T20:02:03;101454.28;;;18.16;100.00
37878;BME280;23715;53.652;8.516;2023-07-20T20:07:03;101457.80;;;18.00;100.00
37878;BME280;23715;53.652;8.516;2023-07-20T20:12:05;101462.06;;;17.68;100.00
37878;BME280;23715;53.652;8.516;2023-07-20T20:17:06;101479.68;;;17.21;100.00
37878;BME280;23715;53.652;8.516;2023-07-20T20:22:07;101484.62;;;17.26;100.00
37878;BME280;23715;53.652;8.516;2023-07-20T20:27:08;101487.50;;;17.54;100.00
37878;BME280;23715;53.652;8.516;2023-07-20T20:32:08;101485.98;;;17.26;100.00
37878;BME280;23715;53.652;8.516;2023-07-20T20:37:12;101488.66;;;17.44;100.00
37878;BME280;23715;53.652;8.516;2023-07-20T20:42:12;101488.16;;;17.22;100.00
37878;BME280;23715;53.652;8.516;2023-07-20T20:47:13;101488.77;;;17.08;100.00
37878;BME280;23715;53.652;8.516;2023-07-20T20:52:14;101493.42;;;16.97;100.00
37878;BME280;23715;53.652;8.516;2023-07-20T20:57:16;101494.85;;;16.84;100.00
37878;BME280;23715;53.652;8.516;2023-07-20T21:02:17;101492.59;;;16.79;100.00
37878;BME280;23715;53.652;8.516;2023-07-20T21:07:17;101485.96;;;17.00;100.00
37878;BME280;23715;53.652;8.516;2023-07-20T21:12:17;101488.30;;;16.90;100.00
37878;BME280;23715;53.652;8.516;2023-07-20T21:17:17;101481.16;;;16.71;100.00
37878;BME280;23715;53.652;8.516;2023-07-20T21:22:17;101481.87;;;16.59;100.00
37878;BME280;23715;53.652;8.516;2023-07-20T21:27:22;101488.64;;;16.24;100.00
37878;BME280;23715;53.652;8.516;2023-07-20T21:32:29;101486.11;;;16.40;100.00
37878;BME280;23715;53.652;8.516;2023-07-20T21:37:27;101488.59;;;16.51;100.00
37878;BME280;23715;53.652;8.516;2023-07-20T21:42:28;101484.02;;;16.70;100.00
37878;BME280;23715;53.652;8.516;2023-07-20T21:47:29;101481.75;;;16.65;100.00
37878;BME280;23715;53.652;8.516;2023-07-20T21:52:33;101472.66;;;16.52;100.00
37878;BME280;23715;53.652;8.516;2023-07-20T21:57:34;101478.00;;;16.44;100.00
37878;BME280;23715;53.652;8.516;2023-07-20T22:02:33;101476.44;;;16.59;100.00
37878;BME280;23715;53.652;8.516;2023-07-20T22:07:33;101466.12;;;16.81;100.00
37878;BME280;23715;53.652;8.516;2023-07-20T22:12:34;101456.94;;;16.42;100.00
37878;BME280;23715;53.652;8.516;2023-07-20T22:17:35;101456.00;;;16.15;100.00
37878;BME280;23715;53.652;8.516;2023-07-20T22:22:36;101462.38;;;16.24;100.00
37878;BME280;23715;53.652;8.516;2023-07-20T22:27:37;101464.24;;;16.42;100.00
37878;BME280;23715;53.652;8.516;2023-07-20T22:32:37;101458.33;;;16.46;100.00
37878;BME280;23715;53.652;8.516;2023-07-20T22:37:38;101449.86;;;16.45;100.00
37878;BME280;23715;53.652;8.516;2023-07-20T22:42:39;101447.02;;;16.33;100.00
37878;BME280;23715;53.652;8.516;2023-07-20T22:47:39;101438.02;;;16.32;100.00
37878;BME280;23715;53.652;8.516;2023-07-20T22:52:42;101436.04;;;16.38;100.00
37878;BME280;23715;53.652;8.516;2023-07-20T22:57:41;101432.36;;;16.44;100.00
37878;BME280;23715;53.652;8.516;2023-07-20T23:02:41;101434.08;;;16.67;100.00
37878;BME280;23715;53.652;8.516;2023-07-20T23:07:43;101433.38;;;16.65;100.00
37878;BME280;23715;53.652;8.516;2023-07-20T23:12:43;101432.84;;;16.61;100.00
37878;BME280;23715;53.652;8.516;2023-07-20T23:17:44;101420.95;;;16.58;100.00
37878;BME280;23715;53.652;8.516;2023-07-20T23:22:50;101429.58;;;16.57;100.00
37878;BME280;23715;53.652;8.516;2023-07-20T23:27:51;101428.47;;;16.46;100.00
37878;BME280;23715;53.652;8.516;2023-07-20T23:32:51;101434.14;;;16.53;100.00
37878;BME280;23715;53.652;8.516;2023-07-20T23:37:51;101429.73;;;16.56;100.00
37878;BME280;23715;53.652;8.516;2023-07-20T23:42:52;101428.20;;;16.53;100.00
37878;BME280;23715;53.652;8.516;2023-07-20T23:47:52;101427.11;;;16.64;100.00
37878;BME280;23715;53.652;8.516;2023-07-20T23:52:52;101410.87;;;16.72;100.00
37878;BME280;23715;53.652;8.516;2023-07-20T23:57:53;101405.46;;;16.76;100.00
